Time;durP1;ratioP1;P1;durP2;ratioP2;P2;SDS_P1;SDS_P2;PMS_P1;PMS_P2;Temp;Humidity;BMP_temperature;BMP_pressure;BME280_temperature;BME280_humidity;BME280_pressure;Samples;Min_cycle;Max_cycle;Signal;HPM_P1;HPM_P2
2024/01/03 00:02:19;;;;;;;748.33;76.03;;;;;;;;;;4917238;28;20045;-84
2024/01/03 00:04:46;;;;;;;758.22;76.85;;;;;;;;;;4924103;28;20034;-84
2024/01/03 00:07:13;;;;;;;726.60;72.20;;;;;;;;;;4924339;28;20133;-84
2024/01/03 00:09:40;;;;;;;723.78;73.30;;;;;;;;;;4923918;28;20038;-83
2024/01/03 00:12:07;;;;;;;748.33;75.20;;;;;;;;;;4908210;28;20212;-83
2024/01/03 00:14:34;;;;;;;680.15;69.03;;;;;;;;;;4924784;28;20289;-83
2024/01/03 00:17:03;;;;;;;806.20;81.93;;;;;;;;;;4919048;28;20049;-83
2024/01/03 00:19:30;;;;;;;748.88;76.60;;;;;;;;;;4923944;28;20034;-82
2024/01/03 00:21:57;;;;;;;670.28;67.55;;;;;;;;;;4925192;28;20038;-82
2024/01/03 00:24:25;;;;;;;758.15;75.90;;;;;;;;;;4919107;28;20045;-83
2024/01/03 00:26:52;;;;;;;752.13;76.35;;;;;;;;;;4921456;28;20136;-83
2024/01/03 00:29:22;;;;;;;805.17;82.00;;;;;;;;;;4898565;28;20045;-83
2024/01/03 00:31:49;;;;;;;838.90;85.90;;;;;;;;;;4908241;28;20050;-83
2024/01/03 00:34:22;;;;;;;865.00;90.07;;;;;;;;;;4909257;28;20064;-83
2024/01/03 00:36:50;;;;;;;860.17;89.63;;;;;;;;;;4890549;28;21072;-83
2024/01/03 00:39:31;;;;;;;876.63;89.45;;;;;;;;;;4886733;28;20856;-83
2024/01/03 00:41:58;;;;;;;850.42;87.45;;;;;;;;;;4903411;28;20224;-82
2024/01/03 00:44:25;;;;;;;841.67;84.97;;;;;;;;;;4901337;28;21116;-83
2024/01/03 00:46:53;;;;;;;847.83;85.82;;;;;;;;;;4882549;28;20049;-82
2024/01/03 00:49:20;;;;;;;871.30;89.47;;;;;;;;;;4904496;28;20224;-83
2024/01/03 00:51:47;;;;;;;833.95;85.03;;;;;;;;;;4890246;28;20220;-83
2024/01/03 00:54:18;;;;;;;879.33;91.32;;;;;;;;;;4906100;28;20201;-83
2024/01/03 00:56:46;;;;;;;846.95;86.63;;;;;;;;;;4888611;28;20069;-83
2024/01/03 00:59:13;;;;;;;870.05;89.53;;;;;;;;;;4907472;28;20136;-83
2024/01/03 01:01:40;;;;;;;840.97;85.05;;;;;;;;;;4887888;28;21165;-83
2024/01/03 01:04:07;;;;;;;890.33;92.10;;;;;;;;;;4902371;28;20908;-83
2024/01/03 01:06:34;;;;;;;844.22;86.63;;;;;;;;;;4885034;28;20082;-83
2024/01/03 01:09:03;;;;;;;862.78;86.38;;;;;;;;;;4888633;28;20034;-83
2024/01/03 01:11:31;;;;;;;885.80;90.68;;;;;;;;;;4901815;28;20034;-82
2024/01/03 01:13:58;;;;;;;882.58;89.88;;;;;;;;;;4902182;28;20141;-83
2024/01/03 01:16:25;;;;;;;850.92;86.97;;;;;;;;;;4882465;28;21000;-83
2024/01/03 01:18:52;;;;;;;881.08;89.00;;;;;;;;;;4883893;28;20109;-82
2024/01/03 01:21:19;;;;;;;893.05;90.95;;;;;;;;;;4899821;28;20044;-83
2024/01/03 01:23:46;;;;;;;863.25;87.90;;;;;;;;;;4883986;28;20046;-82
2024/01/03 01:26:12;;;;;;;924.10;94.45;;;;;;;;;;4883258;28;20068;-82
2024/01/03 01:28:39;;;;;;;873.72;88.25;;;;;;;;;;4896547;28;20099;-83
2024/01/03 01:31:06;;;;;;;850.00;84.68;;;;;;;;;;4884886;28;20041;-82
2024/01/03 01:33:33;;;;;;;854.45;86.22;;;;;;;;;;4901612;28;20034;-83
2024/01/03 01:36:00;;;;;;;887.53;89.70;;;;;;;;;;4897020;28;20030;-82
2024/01/03 01:38:26;;;;;;;880.72;88.15;;;;;;;;;;4900840;28;20917;-82
2024/01/03 01:40:53;;;;;;;861.90;87.70;;;;;;;;;;4901696;28;21359;-83
2024/01/03 01:43:19;;;;;;;884.10;89.30;;;;;;;;;;4901937;28;21102;-83
2024/01/03 01:45:46;;;;;;;883.45;89.70;;;;;;;;;;4880962;28;20816;-82
2024/01/03 01:48:15;;;;;;;868.22;86.50;;;;;;;;;;4883834;28;20038;-82
2024/01/03 01:50:42;;;;;;;884.80;90.53;;;;;;;;;;4882798;28;20076;-82
2024/01/03 01:53:10;;;;;;;890.20;90.07;;;;;;;;;;4900950;28;20038;-82
2024/01/03 01:55:38;;;;;;;839.72;83.45;;;;;;;;;;4888058;28;21032;-83
2024/01/03 01:58:05;;;;;;;861.22;87.75;;;;;;;;;;4884338;28;20073;-82
2024/01/03 02:03:30;;;;;;;883.33;88.38;;;;;;;;;;4829586;28;20090;-83
2024/01/03 02:05:57;;;;;;;875.72;87.90;;;;;;;;;;4846416;28;20050;-83
2024/01/03 02:08:24;;;;;;;856.85;84.15;;;;;;;;;;4878691;28;20551;-84
2024/01/03 02:10:51;;;;;;;863.72;85.50;;;;;;;;;;4847549;29;20111;-85
2024/01/03 02:13:18;;;;;;;899.03;89.45;;;;;;;;;;4847064;28;20043;-85
2024/01/03 02:15:45;;;;;;;868.75;88.32;;;;;;;;;;4846501;29;20109;-85
2024/01/03 02:18:12;;;;;;;946.70;95.93;;;;;;;;;;4884057;28;20369;-85
2024/01/03 02:20:40;;;;;;;890.55;88.20;;;;;;;;;;4866445;29;20049;-85
2024/01/03 02:23:07;;;;;;;798.67;80.10;;;;;;;;;;4856638;29;20046;-86
2024/01/03 02:25:33;;;;;;;728.78;72.75;;;;;;;;;;4862426;28;20073;-85
2024/01/03 02:28:00;;;;;;;909.35;92.38;;;;;;;;;;4855702;29;20966;-85
2024/01/03 02:30:27;;;;;;;903.47;90.88;;;;;;;;;;4841287;29;20970;-85
2024/01/03 02:32:53;;;;;;;737.25;71.65;;;;;;;;;;4847632;29;20147;-85
2024/01/03 02:35:20;;;;;;;779.10;75.75;;;;;;;;;;4861104;28;20035;-85
2024/01/03 02:37:47;;;;;;;893.05;90.93;;;;;;;;;;4859092;28;20122;-84
2024/01/03 02:40:13;;;;;;;935.30;95.22;;;;;;;;;;4839210;28;20094;-83
2024/01/03 02:42:40;;;;;;;962.63;96.78;;;;;;;;;;4839736;29;20035;-83
2024/01/03 02:45:07;;;;;;;762.53;74.93;;;;;;;;;;4863497;28;20222;-83
2024/01/03 02:47:34;;;;;;;791.53;78.80;;;;;;;;;;4860172;28;20096;-82
2024/01/03 02:50:01;;;;;;;926.75;92.78;;;;;;;;;;4842200;29;21185;-83
2024/01/03 02:52:27;;;;;;;909.67;90.88;;;;;;;;;;4840575;29;20790;-83
2024/01/03 02:54:54;;;;;;;946.08;96.00;;;;;;;;;;4839989;29;20074;-83
2024/01/03 02:57:21;;;;;;;936.05;95.38;;;;;;;;;;4838426;29;20050;-83
2024/01/03 02:59:47;;;;;;;843.22;85.85;;;;;;;;;;4844819;28;20050;-83
2024/01/03 03:02:15;;;;;;;908.55;92.05;;;;;;;;;;4860261;28;20067;-83
2024/01/03 03:04:42;;;;;;;986.97;99.63;;;;;;;;;;4859513;28;20050;-83
2024/01/03 03:07:09;;;;;;;893.42;91.18;;;;;;;;;;4859293;28;21329;-83
2024/01/03 03:09:35;;;;;;;904.15;91.20;;;;;;;;;;4863226;28;20035;-83
2024/01/03 03:12:02;;;;;;;924.53;91.70;;;;;;;;;;4863641;28;20035;-83
2024/01/03 03:14:29;;;;;;;912.88;90.35;;;;;;;;;;4863149;28;20921;-83
2024/01/03 03:16:55;;;;;;;903.80;90.28;;;;;;;;;;4859703;28;20967;-83
2024/01/03 03:19:22;;;;;;;937.53;93.40;;;;;;;;;;4858429;28;21079;-82
2024/01/03 03:21:48;;;;;;;902.38;91.03;;;;;;;;;;4858310;28;20057;-83
2024/01/03 03:24:15;;;;;;;917.92;92.32;;;;;;;;;;4857860;28;20993;-83
2024/01/03 03:26:42;;;;;;;991.78;100.18;;;;;;;;;;4858771;28;21188;-83
2024/01/03 03:29:08;;;;;;;895.80;89.55;;;;;;;;;;4858315;28;20038;-83
2024/01/03 03:31:35;;;;;;;951.65;96.00;;;;;;;;;;4859218;28;20086;-82
2024/01/03 03:34:02;;;;;;;934.53;92.80;;;;;;;;;;4852828;28;20043;-83
2024/01/03 03:36:28;;;;;;;909.50;90.60;;;;;;;;;;4857252;28;20031;-83
2024/01/03 03:38:55;;;;;;;918.30;93.53;;;;;;;;;;4856725;28;20113;-83
2024/01/03 03:41:23;;;;;;;946.65;95.13;;;;;;;;;;4858793;28;20047;-83
2024/01/03 03:43:50;;;;;;;921.03;92.57;;;;;;;;;;4858957;28;21036;-83
2024/01/03 03:46:17;;;;;;;908.60;88.63;;;;;;;;;;4859681;28;20157;-83
2024/01/03 03:48:44;;;;;;;1027.32;104.88;;;;;;;;;;4858119;28;20046;-83
2024/01/03 03:51:11;;;;;;;919.88;92.28;;;;;;;;;;4860439;28;20050;-83
2024/01/03 03:53:37;;;;;;;889.00;88.32;;;;;;;;;;4863447;28;20137;-83
2024/01/03 03:56:04;;;;;;;915.72;91.13;;;;;;;;;;4861725;28;20050;-84
2024/01/03 03:58:30;;;;;;;903.20;90.43;;;;;;;;;;4860724;28;21236;-82
2024/01/03 04:00:58;;;;;;;896.05;90.15;;;;;;;;;;4860747;28;20278;-83
2024/01/03 04:03:24;;;;;;;955.28;96.53;;;;;;;;;;4858135;28;21154;-83
2024/01/03 04:05:51;;;;;;;903.17;91.75;;;;;;;;;;4859565;28;21264;-83
2024/01/03 04:08:18;;;;;;;931.90;93.40;;;;;;;;;;4862596;28;20039;-83
2024/01/03 04:10:44;;;;;;;934.60;94.60;;;;;;;;;;4861317;28;20998;-83
2024/01/03 04:13:11;;;;;;;935.58;95.57;;;;;;;;;;4859727;28;21011;-85
2024/01/03 04:15:37;;;;;;;908.47;92.47;;;;;;;;;;4862006;28;20031;-83
2024/01/03 04:18:05;;;;;;;949.60;95.88;;;;;;;;;;4861779;28;20034;-83
2024/01/03 04:20:32;;;;;;;907.40;90.57;;;;;;;;;;4857844;28;20181;-83
2024/01/03 04:22:59;;;;;;;894.10;88.90;;;;;;;;;;4858521;28;20039;-83
2024/01/03 04:25:25;;;;;;;936.08;94.30;;;;;;;;;;4856949;28;20026;-83
2024/01/03 04:27:52;;;;;;;930.55;93.25;;;;;;;;;;4857209;28;20035;-82
2024/01/03 04:30:18;;;;;;;955.15;95.10;;;;;;;;;;4857885;28;20046;-83
2024/01/03 04:32:45;;;;;;;997.50;98.53;;;;;;;;;;4859011;28;20984;-83
2024/01/03 04:35:12;;;;;;;919.35;92.50;;;;;;;;;;4863979;28;20039;-83
2024/01/03 04:37:39;;;;;;;887.20;89.25;;;;;;;;;;4860400;28;20046;-83
2024/01/03 04:40:06;;;;;;;994.50;100.65;;;;;;;;;;4859332;28;20097;-82
2024/01/03 04:42:33;;;;;;;915.55;92.50;;;;;;;;;;4857648;28;20058;-83
2024/01/03 04:45:00;;;;;;;904.95;89.25;;;;;;;;;;4861194;28;20138;-83
2024/01/03 04:47:28;;;;;;;917.08;90.93;;;;;;;;;;4860568;28;21326;-83
2024/01/03 04:49:55;;;;;;;963.53;94.75;;;;;;;;;;4861777;28;20061;-83
2024/01/03 04:52:21;;;;;;;936.25;92.28;;;;;;;;;;4862326;28;21034;-83
2024/01/03 04:54:48;;;;;;;935.33;92.45;;;;;;;;;;4859064;28;20043;-83
2024/01/03 04:57:14;;;;;;;938.33;94.95;;;;;;;;;;4860921;28;20137;-83
2024/01/03 04:59:44;;;;;;;922.25;93.05;;;;;;;;;;4846882;28;20049;-83
2024/01/03 05:02:10;;;;;;;927.38;92.00;;;;;;;;;;4861365;28;20050;-83
2024/01/03 05:04:37;;;;;;;935.65;91.95;;;;;;;;;;4861840;28;20333;-82
2024/01/03 05:07:04;;;;;;;918.75;90.97;;;;;;;;;;4851089;28;20039;-83
2024/01/03 05:09:34;;;;;;;901.80;89.30;;;;;;;;;;4858089;28;20042;-83
2024/01/03 05:12:02;;;;;;;932.60;91.72;;;;;;;;;;4858958;28;21126;-83
2024/01/03 05:14:32;;;;;;;891.65;90.05;;;;;;;;;;4856981;28;21133;-83
2024/01/03 05:16:59;;;;;;;894.03;89.43;;;;;;;;;;4857817;28;20046;-84
2024/01/03 05:19:26;;;;;;;991.72;101.07;;;;;;;;;;4856328;28;20035;-83
2024/01/03 05:21:53;;;;;;;906.20;89.53;;;;;;;;;;4858392;28;20145;-83
2024/01/03 05:24:20;;;;;;;911.28;90.13;;;;;;;;;;4859073;28;20041;-83
2024/01/03 05:26:47;;;;;;;942.42;93.97;;;;;;;;;;4860019;28;20062;-83
2024/01/03 05:29:13;;;;;;;966.72;97.22;;;;;;;;;;4857660;28;20039;-83
2024/01/03 05:31:40;;;;;;;925.25;92.78;;;;;;;;;;4854315;28;20133;-83
2024/01/03 05:34:08;;;;;;;916.88;90.95;;;;;;;;;;4857098;28;20034;-82
2024/01/03 05:36:36;;;;;;;918.90;91.82;;;;;;;;;;4855617;28;20058;-85
2024/01/03 05:39:02;;;;;;;889.78;88.03;;;;;;;;;;4856745;28;21254;-84
2024/01/03 05:41:29;;;;;;;916.75;89.07;;;;;;;;;;4852082;28;21141;-84
2024/01/03 05:43:56;;;;;;;898.67;89.15;;;;;;;;;;4857217;28;21225;-85
2024/01/03 05:46:23;;;;;;;890.08;87.55;;;;;;;;;;4860641;28;20050;-85
2024/01/03 05:48:50;;;;;;;933.33;91.63;;;;;;;;;;4864116;28;20197;-84
2024/01/03 05:51:17;;;;;;;938.50;94.05;;;;;;;;;;4858733;28;20046;-83
2024/01/03 05:53:47;;;;;;;886.28;87.38;;;;;;;;;;4862536;28;20035;-84
2024/01/03 05:56:14;;;;;;;937.90;92.80;;;;;;;;;;4865196;28;20175;-85
2024/01/03 05:58:42;;;;;;;754.35;72.68;;;;;;;;;;4849585;28;20035;-89
2024/01/03 06:01:09;;;;;;;754.35;73.03;;;;;;;;;;4899507;28;20053;-89
2024/01/03 06:03:37;;;;;;;743.95;72.32;;;;;;;;;;4878323;28;20564;-89
2024/01/03 06:06:05;;;;;;;754.80;71.88;;;;;;;;;;4894169;28;20233;-88
2024/01/03 06:08:32;;;;;;;763.38;73.88;;;;;;;;;;4898560;28;20047;-88
2024/01/03 06:10:59;;;;;;;735.65;69.88;;;;;;;;;;4898892;28;20039;-87
2024/01/03 06:13:25;;;;;;;1028.68;102.50;;;;;;;;;;4844221;28;20096;-82
2024/01/03 06:15:53;;;;;;;975.42;96.20;;;;;;;;;;4849425;28;20266;-82
2024/01/03 06:18:21;;;;;;;967.83;94.80;;;;;;;;;;4861911;28;20045;-83
2024/01/03 06:20:48;;;;;;;1007.13;98.97;;;;;;;;;;4858007;28;20043;-83
2024/01/03 06:23:15;;;;;;;1051.40;104.78;;;;;;;;;;4847715;28;20097;-82
2024/01/03 06:25:43;;;;;;;1017.80;99.45;;;;;;;;;;4863794;28;20038;-89
2024/01/03 06:28:09;;;;;;;847.78;81.85;;;;;;;;;;4855770;28;20043;-83
2024/01/03 06:30:36;;;;;;;932.33;91.03;;;;;;;;;;4853022;28;20848;-83
2024/01/03 06:33:03;;;;;;;940.22;90.80;;;;;;;;;;4871066;28;20042;-82
2024/01/03 06:35:30;;;;;;;916.63;87.13;;;;;;;;;;4889705;28;20038;-82
2024/01/03 06:37:57;;;;;;;1017.88;100.00;;;;;;;;;;4885398;28;20558;-83
2024/01/03 06:40:24;;;;;;;882.10;85.60;;;;;;;;;;4897336;28;20142;-83
2024/01/03 06:42:50;;;;;;;810.95;76.88;;;;;;;;;;4872630;28;20039;-82
2024/01/03 06:45:17;;;;;;;756.92;71.38;;;;;;;;;;4883132;28;20038;-83
2024/01/03 06:47:44;;;;;;;675.95;62.38;;;;;;;;;;4896461;28;20883;-83
2024/01/03 06:50:10;;;;;;;686.47;63.90;;;;;;;;;;4872027;28;20051;-82
2024/01/03 06:52:37;;;;;;;706.92;65.85;;;;;;;;;;4893706;28;20120;-83
2024/01/03 06:55:04;;;;;;;654.35;61.78;;;;;;;;;;4874853;28;20054;-84
2024/01/03 06:57:31;;;;;;;762.75;71.93;;;;;;;;;;4893990;28;20209;-83
2024/01/03 06:59:57;;;;;;;709.65;67.35;;;;;;;;;;4889330;28;20062;-83
2024/01/03 07:02:24;;;;;;;786.67;74.75;;;;;;;;;;4888147;28;21065;-82
2024/01/03 07:04:52;;;;;;;764.72;72.30;;;;;;;;;;4887658;28;20039;-83
2024/01/03 07:07:19;;;;;;;743.97;70.00;;;;;;;;;;4884178;28;21077;-83
2024/01/03 07:09:45;;;;;;;862.75;84.88;;;;;;;;;;4886597;28;20042;-83
2024/01/03 07:12:16;;;;;;;844.50;81.70;;;;;;;;;;4881246;28;20142;-83
2024/01/03 07:14:43;;;;;;;835.25;79.97;;;;;;;;;;4872488;28;20931;-83
2024/01/03 07:17:10;;;;;;;828.90;79.95;;;;;;;;;;4882484;28;21072;-83
2024/01/03 07:19:37;;;;;;;850.92;83.32;;;;;;;;;;4876729;28;20125;-83
2024/01/03 07:22:03;;;;;;;1043.45;102.65;;;;;;;;;;4856596;28;20046;-82
2024/01/03 07:24:30;;;;;;;956.50;93.70;;;;;;;;;;4841845;28;20569;-83
2024/01/03 07:26:57;;;;;;;885.80;85.82;;;;;;;;;;4855491;28;20145;-82
2024/01/03 07:29:24;;;;;;;998.08;99.20;;;;;;;;;;4850963;28;20039;-82
2024/01/03 07:31:51;;;;;;;923.28;90.18;;;;;;;;;;4841144;28;20050;-83
2024/01/03 07:34:17;;;;;;;911.58;88.53;;;;;;;;;;4868916;28;20034;-83
2024/01/03 07:36:44;;;;;;;933.33;90.03;;;;;;;;;;4861530;28;20045;-83
2024/01/03 07:39:10;;;;;;;884.15;85.10;;;;;;;;;;4872625;28;20897;-84
2024/01/03 07:41:41;;;;;;;902.53;86.97;;;;;;;;;;4868337;28;20225;-84
2024/01/03 07:44:09;;;;;;;885.53;85.22;;;;;;;;;;4846601;28;20046;-84
2024/01/03 07:46:36;;;;;;;902.22;86.80;;;;;;;;;;4863145;28;20869;-85
2024/01/03 07:49:02;;;;;;;912.83;88.78;;;;;;;;;;4862718;28;20050;-83
2024/01/03 07:51:29;;;;;;;924.85;89.75;;;;;;;;;;4860159;28;20030;-84
2024/01/03 07:53:56;;;;;;;953.38;92.70;;;;;;;;;;4869188;28;20843;-84
2024/01/03 07:56:22;;;;;;;904.15;87.88;;;;;;;;;;4867445;28;20077;-82
2024/01/03 07:58:49;;;;;;;871.25;86.45;;;;;;;;;;4865569;28;20047;-84
2024/01/03 08:01:15;;;;;;;950.05;95.05;;;;;;;;;;4870173;28;20054;-84
2024/01/03 08:03:42;;;;;;;913.95;91.05;;;;;;;;;;4865191;28;20046;-84
2024/01/03 08:06:09;;;;;;;935.67;93.72;;;;;;;;;;4860635;28;21036;-84
2024/01/03 08:08:36;;;;;;;936.80;92.35;;;;;;;;;;4868919;28;20040;-84
2024/01/03 08:11:02;;;;;;;936.17;92.15;;;;;;;;;;4866559;28;20038;-84
2024/01/03 08:13:30;;;;;;;960.05;94.53;;;;;;;;;;4860023;28;20031;-84
2024/01/03 08:15:57;;;;;;;949.55;92.85;;;;;;;;;;4868130;28;20042;-84
2024/01/03 08:18:23;;;;;;;961.15;94.63;;;;;;;;;;4863692;28;20141;-84
2024/01/03 08:20:50;;;;;;;935.60;92.00;;;;;;;;;;4860660;28;20422;-84
2024/01/03 08:23:17;;;;;;;921.78;89.75;;;;;;;;;;4866939;28;21117;-84
2024/01/03 08:25:43;;;;;;;917.45;88.65;;;;;;;;;;4867609;28;20144;-84
2024/01/03 08:28:11;;;;;;;909.17;87.45;;;;;;;;;;4861637;28;20106;-84
2024/01/03 08:30:37;;;;;;;833.45;79.38;;;;;;;;;;4847516;28;20118;-84
2024/01/03 08:33:04;;;;;;;925.40;88.75;;;;;;;;;;4871495;28;20042;-84
2024/01/03 08:35:31;;;;;;;884.60;85.65;;;;;;;;;;4863697;28;21243;-84
2024/01/03 08:37:58;;;;;;;932.83;90.68;;;;;;;;;;4869108;28;20128;-84
2024/01/03 08:40:25;;;;;;;849.40;81.75;;;;;;;;;;4868991;28;21120;-83
2024/01/03 08:42:51;;;;;;;923.28;89.93;;;;;;;;;;4860046;28;20335;-83
2024/01/03 08:45:18;;;;;;;933.55;90.57;;;;;;;;;;4865911;28;20038;-84
2024/01/03 08:47:45;;;;;;;916.63;88.70;;;;;;;;;;4869598;28;20042;-83
2024/01/03 08:50:13;;;;;;;912.65;88.65;;;;;;;;;;4860898;28;20031;-84
2024/01/03 08:52:41;;;;;;;914.83;88.65;;;;;;;;;;4867019;28;20046;-83
2024/01/03 08:55:07;;;;;;;899.30;86.55;;;;;;;;;;4867922;28;20031;-84
2024/01/03 08:57:34;;;;;;;899.33;86.47;;;;;;;;;;4861525;28;20901;-83
2024/01/03 09:00:00;;;;;;;941.28;90.43;;;;;;;;;;4864352;28;20176;-83
2024/01/03 09:02:27;;;;;;;936.05;92.68;;;;;;;;;;4867688;28;20089;-84
2024/01/03 09:04:54;;;;;;;907.75;88.78;;;;;;;;;;4839542;28;20324;-83
2024/01/03 09:07:21;;;;;;;953.28;92.03;;;;;;;;;;4857155;28;20049;-84
2024/01/03 09:09:47;;;;;;;912.00;88.38;;;;;;;;;;4868262;28;20041;-83
2024/01/03 09:12:16;;;;;;;902.92;86.80;;;;;;;;;;4862420;28;20041;-83
2024/01/03 09:14:42;;;;;;;835.00;80.93;;;;;;;;;;4862036;28;20038;-83
2024/01/03 09:17:09;;;;;;;891.33;87.10;;;;;;;;;;4863253;28;21112;-83
2024/01/03 09:19:36;;;;;;;927.67;90.70;;;;;;;;;;4862627;28;21163;-83
2024/01/03 09:22:03;;;;;;;931.72;90.28;;;;;;;;;;4863756;28;21373;-83
2024/01/03 09:24:30;;;;;;;936.60;92.28;;;;;;;;;;4868173;28;20035;-84
2024/01/03 09:26:57;;;;;;;919.60;90.80;;;;;;;;;;4862031;28;20039;-83
2024/01/03 09:29:24;;;;;;;953.50;92.80;;;;;;;;;;4864404;28;20197;-83
2024/01/03 09:31:50;;;;;;;917.33;90.28;;;;;;;;;;4865923;28;20046;-83
2024/01/03 09:34:17;;;;;;;917.45;91.15;;;;;;;;;;4861631;28;20035;-83
2024/01/03 09:36:44;;;;;;;923.72;92.82;;;;;;;;;;4866937;28;20057;-83
2024/01/03 09:39:12;;;;;;;910.40;93.78;;;;;;;;;;4864390;28;20102;-83
2024/01/03 09:41:39;;;;;;;879.60;88.15;;;;;;;;;;4858767;28;20750;-83
2024/01/03 09:44:06;;;;;;;923.30;91.78;;;;;;;;;;4862408;28;20050;-83
2024/01/03 09:46:34;;;;;;;935.78;91.70;;;;;;;;;;4866937;28;20054;-83
2024/01/03 09:49:01;;;;;;;952.58;93.15;;;;;;;;;;4862065;28;20050;-83
2024/01/03 09:51:29;;;;;;;962.75;95.28;;;;;;;;;;4860761;28;20038;-83
2024/01/03 09:53:56;;;;;;;965.10;94.95;;;;;;;;;;4871293;28;20818;-82
2024/01/03 09:56:23;;;;;;;933.88;90.72;;;;;;;;;;4861822;28;20884;-83
2024/01/03 09:58:50;;;;;;;906.45;90.07;;;;;;;;;;4863736;28;20038;-83
2024/01/03 10:01:16;;;;;;;921.40;89.93;;;;;;;;;;4868140;28;20281;-83
2024/01/03 10:03:44;;;;;;;915.40;90.13;;;;;;;;;;4862606;28;20876;-83
2024/01/03 10:06:13;;;;;;;905.42;88.97;;;;;;;;;;4860342;28;20117;-83
2024/01/03 10:09:02;;;;;;;940.17;92.55;;;;;;;;;;4865632;28;20057;-83
2024/01/03 10:11:29;;;;;;;906.55;89.63;;;;;;;;;;4863381;28;20049;-82
2024/01/03 10:14:12;;;;;;;927.55;90.88;;;;;;;;;;4864506;28;20374;-83
2024/01/03 10:16:39;;;;;;;909.43;88.80;;;;;;;;;;4842657;28;20046;-83
2024/01/03 10:19:12;;;;;;;906.90;89.45;;;;;;;;;;4863845;28;20110;-83
2024/01/03 10:21:45;;;;;;;904.92;89.82;;;;;;;;;;4865532;28;21011;-83
2024/01/03 10:24:12;;;;;;;925.10;90.68;;;;;;;;;;4860766;28;20980;-83
2024/01/03 10:26:39;;;;;;;833.72;80.53;;;;;;;;;;4863489;28;20085;-82
2024/01/03 10:29:09;;;;;;;903.85;89.13;;;;;;;;;;4868830;28;20993;-83
2024/01/03 10:31:36;;;;;;;907.15;89.55;;;;;;;;;;4869329;28;20034;-83
2024/01/03 10:34:04;;;;;;;929.70;93.95;;;;;;;;;;4864263;28;20138;-84
2024/01/03 10:36:32;;;;;;;940.65;95.15;;;;;;;;;;4870314;28;20996;-84
2024/01/03 10:38:59;;;;;;;911.00;91.15;;;;;;;;;;4869322;28;20039;-84
2024/01/03 10:41:26;;;;;;;979.38;99.22;;;;;;;;;;4860879;28;21164;-83
2024/01/03 10:43:54;;;;;;;859.10;85.78;;;;;;;;;;4875978;28;20122;-83
2024/01/03 10:46:22;;;;;;;864.65;86.07;;;;;;;;;;4873808;28;20058;-83
2024/01/03 10:48:48;;;;;;;893.63;89.13;;;;;;;;;;4868450;28;20130;-83
2024/01/03 10:51:17;;;;;;;924.42;93.15;;;;;;;;;;4872518;28;20041;-83
2024/01/03 10:53:43;;;;;;;810.88;81.38;;;;;;;;;;4883152;28;20066;-84
2024/01/03 10:56:10;;;;;;;848.70;88.35;;;;;;;;;;4871211;28;20718;-83
2024/01/03 10:58:39;;;;;;;908.88;92.57;;;;;;;;;;4878346;28;20128;-83
2024/01/03 11:01:20;;;;;;;897.38;91.40;;;;;;;;;;4887318;28;20785;-85
2024/01/03 11:04:05;;;;;;;838.92;85.22;;;;;;;;;;4905590;28;20054;-85
2024/01/03 11:06:46;;;;;;;915.83;93.47;;;;;;;;;;4902225;28;20033;-83
2024/01/03 11:09:13;;;;;;;806.25;82.63;;;;;;;;;;4881002;28;20050;-83
2024/01/03 11:11:42;;;;;;;724.17;74.80;;;;;;;;;;4880052;28;20062;-83
2024/01/03 11:14:18;;;;;;;741.85;75.38;;;;;;;;;;4885343;28;20137;-83
2024/01/03 11:16:45;;;;;;;681.28;66.20;;;;;;;;;;4893592;28;20043;-82
2024/01/03 11:19:12;;;;;;;640.00;62.92;;;;;;;;;;4886404;28;20084;-82
2024/01/03 11:21:39;;;;;;;715.17;70.63;;;;;;;;;;4888687;28;20036;-82
2024/01/03 11:24:09;;;;;;;682.83;65.32;;;;;;;;;;4893969;28;21163;-82
2024/01/03 11:26:54;;;;;;;705.08;66.78;;;;;;;;;;4887625;28;20186;-82
2024/01/03 11:29:33;;;;;;;761.90;75.60;;;;;;;;;;4895154;28;20054;-81
2024/01/03 11:32:06;;;;;;;686.17;65.90;;;;;;;;;;4889197;28;20051;-82
2024/01/03 11:34:37;;;;;;;790.20;76.90;;;;;;;;;;4882429;28;20157;-82
2024/01/03 11:37:05;;;;;;;790.40;77.63;;;;;;;;;;4879185;28;21211;-82
2024/01/03 11:39:36;;;;;;;762.28;76.00;;;;;;;;;;4874392;28;21073;-81
2024/01/03 11:42:02;;;;;;;813.10;82.55;;;;;;;;;;4872048;28;20055;-81
2024/01/03 11:44:29;;;;;;;813.35;81.43;;;;;;;;;;4873236;28;20043;-82
2024/01/03 11:47:01;;;;;;;806.72;81.93;;;;;;;;;;4856656;28;20552;-82
2024/01/03 11:49:28;;;;;;;919.90;96.75;;;;;;;;;;4867255;28;20054;-82
2024/01/03 11:51:56;;;;;;;865.70;91.03;;;;;;;;;;4865609;28;20116;-82
2024/01/03 11:54:22;;;;;;;903.72;94.03;;;;;;;;;;4861623;28;20069;-82
2024/01/03 11:56:49;;;;;;;922.22;96.43;;;;;;;;;;4856642;28;20068;-82
2024/01/03 11:59:21;;;;;;;814.97;81.95;;;;;;;;;;4864262;28;20035;-82
2024/01/03 12:01:54;;;;;;;771.92;79.45;;;;;;;;;;4891779;28;20226;-82
2024/01/03 12:04:21;;;;;;;904.70;93.28;;;;;;;;;;4859050;28;20105;-82
2024/01/03 12:06:48;;;;;;;911.35;93.30;;;;;;;;;;4860888;28;20050;-82
2024/01/03 12:09:15;;;;;;;932.53;97.95;;;;;;;;;;4858232;28;20306;-81
2024/01/03 12:11:42;;;;;;;908.03;103.50;;;;;;;;;;4858712;28;20243;-82
2024/01/03 12:14:09;;;;;;;923.40;97.65;;;;;;;;;;4854390;28;20043;-82
2024/01/03 12:16:46;;;;;;;970.45;103.53;;;;;;;;;;4856661;28;21321;-82
2024/01/03 12:19:23;;;;;;;933.45;103.63;;;;;;;;;;4839310;28;20043;-82
2024/01/03 12:21:56;;;;;;;929.75;102.00;;;;;;;;;;4855239;28;20966;-82
2024/01/03 12:24:39;;;;;;;940.20;103.53;;;;;;;;;;4860964;28;20050;-81
2024/01/03 12:27:06;;;;;;;861.28;93.95;;;;;;;;;;4858520;28;20354;-81
2024/01/03 12:29:36;;;;;;;957.28;104.13;;;;;;;;;;4860590;28;20043;-82
2024/01/03 12:32:09;;;;;;;965.13;102.47;;;;;;;;;;4866614;28;20153;-82
2024/01/03 12:34:35;;;;;;;880.95;94.13;;;;;;;;;;4864658;28;20034;-82
2024/01/03 12:37:02;;;;;;;934.92;104.05;;;;;;;;;;4856453;28;20110;-82
2024/01/03 12:39:36;;;;;;;977.75;106.78;;;;;;;;;;4854929;28;21049;-83
2024/01/03 12:42:08;;;;;;;975.33;109.55;;;;;;;;;;4855165;28;20918;-83
2024/01/03 12:44:37;;;;;;;916.83;106.28;;;;;;;;;;4865291;28;20046;-82
2024/01/03 12:47:05;;;;;;;953.65;116.90;;;;;;;;;;4858773;28;20546;-82
2024/01/03 12:49:31;;;;;;;946.22;106.85;;;;;;;;;;4855065;28;20525;-82
2024/01/03 12:51:59;;;;;;;957.30;106.60;;;;;;;;;;4854613;28;21361;-83
2024/01/03 12:54:26;;;;;;;947.10;107.70;;;;;;;;;;4859060;28;20062;-82
2024/01/03 12:56:52;;;;;;;975.83;118.07;;;;;;;;;;4844060;28;20042;-82
2024/01/03 12:59:19;;;;;;;950.10;113.07;;;;;;;;;;4852725;28;20034;-82
2024/01/03 13:01:46;;;;;;;922.05;103.93;;;;;;;;;;4855359;28;20054;-82
2024/01/03 13:04:16;;;;;;;944.30;109.75;;;;;;;;;;4841974;28;20050;-83
2024/01/03 13:06:43;;;;;;;949.08;107.00;;;;;;;;;;4852161;28;21389;-82
2024/01/03 13:09:10;;;;;;;908.15;101.28;;;;;;;;;;4854319;28;20039;-82
2024/01/03 13:11:36;;;;;;;954.25;106.35;;;;;;;;;;4854728;28;20039;-82
2024/01/03 13:14:03;;;;;;;973.03;109.85;;;;;;;;;;4852683;28;20039;-82
2024/01/03 13:16:30;;;;;;;947.28;111.68;;;;;;;;;;4841279;28;21151;-83
2024/01/03 13:18:56;;;;;;;977.42;121.72;;;;;;;;;;4852732;28;20149;-81
2024/01/03 13:21:23;;;;;;;1012.85;117.70;;;;;;;;;;4846359;28;20035;-82
2024/01/03 13:23:50;;;;;;;957.75;117.15;;;;;;;;;;4841925;28;20050;-81
2024/01/03 13:26:17;;;;;;;968.03;125.30;;;;;;;;;;4840644;28;20034;-81
2024/01/03 13:28:43;;;;;;;962.83;121.13;;;;;;;;;;4853026;28;20043;-82
2024/01/03 13:31:13;;;;;;;955.42;113.28;;;;;;;;;;4853736;28;20034;-82
2024/01/03 13:33:40;;;;;;;925.00;106.43;;;;;;;;;;4853763;28;20042;-82
2024/01/03 13:36:07;;;;;;;968.40;110.47;;;;;;;;;;4846877;28;20046;-82
2024/01/03 13:38:34;;;;;;;967.78;114.40;;;;;;;;;;4835116;28;20227;-83
2024/01/03 13:41:04;;;;;;;933.08;112.38;;;;;;;;;;4854273;28;21178;-82
2024/01/03 13:43:32;;;;;;;974.30;112.80;;;;;;;;;;4853401;28;20114;-82
2024/01/03 13:45:58;;;;;;;988.28;110.45;;;;;;;;;;4853071;28;20647;-82
2024/01/03 13:48:25;;;;;;;948.05;105.63;;;;;;;;;;4853025;28;20043;-83
2024/01/03 13:50:52;;;;;;;963.80;105.63;;;;;;;;;;4852413;28;21058;-82
2024/01/03 13:53:19;;;;;;;932.67;102.78;;;;;;;;;;4858137;28;20990;-82
2024/01/03 13:55:46;;;;;;;929.95;106.43;;;;;;;;;;4852177;28;20263;-82
2024/01/03 13:58:13;;;;;;;950.42;106.28;;;;;;;;;;4847060;28;20919;-83
2024/01/03 14:00:40;;;;;;;1012.50;109.20;;;;;;;;;;4853030;28;20077;-82
2024/01/03 14:03:06;;;;;;;928.78;102.22;;;;;;;;;;4859566;28;20057;-82
2024/01/03 14:05:35;;;;;;;917.95;99.95;;;;;;;;;;4859002;28;21217;-82
2024/01/03 14:08:01;;;;;;;1006.17;108.85;;;;;;;;;;4857749;28;20896;-82